sensor_id;sensor_type;location;lat;lon;timestamp;temperature;humidity
59660;DHT22;45534;52.690;6.268;2023-06-10T00:00:47;18.30;99.90
59660;DHT22;45534;52.690;6.268;2023-06-10T00:03:13;18.20;99.90
59660;DHT22;45534;52.690;6.268;2023-06-10T00:05:38;18.20;99.90
59660;DHT22;45534;52.690;6.268;2023-06-10T00:08:05;18.10;99.90
59660;DHT22;45534;52.690;6.268;2023-06-10T00:10:35;18.10;99.90
59660;DHT22;45534;52.690;6.268;2023-06-10T00:13:02;18.10;99.90
59660;DHT22;45534;52.690;6.268;2023-06-10T00:15:29;18.00;99.90
59660;DHT22;45534;52.690;6.268;2023-06-10T00:17:54;18.00;99.90
59660;DHT22;45534;52.690;6.268;2023-06-10T00:20:21;18.00;99.90
59660;DHT22;45534;52.690;6.268;2023-06-10T00:22:49;17.90;99.90
59660;DHT22;45534;52.690;6.268;2023-06-10T00:25:15;17.90;99.90
59660;DHT22;45534;52.690;6.268;2023-06-10T00:27:41;17.80;99.90
59660;DHT22;45534;52.690;6.268;2023-06-10T00:30:07;17.70;99.90
59660;DHT22;45534;52.690;6.268;2023-06-10T00:32:34;17.70;99.90
59660;DHT22;45534;52.690;6.268;2023-06-10T00:34:59;17.60;99.90
59660;DHT22;45534;52.690;6.268;2023-06-10T00:37:25;17.60;99.90
59660;DHT22;45534;52.690;6.268;2023-06-10T00:39:51;17.50;99.90
59660;DHT22;45534;52.690;6.268;2023-06-10T00:42:17;17.50;99.90
59660;DHT22;45534;52.690;6.268;2023-06-10T00:44:42;17.50;99.90
59660;DHT22;45534;52.690;6.268;2023-06-10T00:47:08;17.50;99.90
59660;DHT22;45534;52.690;6.268;2023-06-10T00:49:34;17.50;99.90
59660;DHT22;45534;52.690;6.268;2023-06-10T00:52:01;17.50;99.90
59660;DHT22;45534;52.690;6.268;2023-06-10T00:54:27;17.40;99.90
59660;DHT22;45534;52.690;6.268;2023-06-10T00:56:53;17.40;99.90
59660;DHT22;45534;52.690;6.268;2023-06-10T00:59:20;17.40;99.90
59660;DHT22;45534;52.690;6.268;2023-06-10T01:01:46;17.40;99.90
59660;DHT22;45534;52.690;6.268;2023-06-10T01:04:13;17.40;99.90
59660;DHT22;45534;52.690;6.268;2023-06-10T01:07:07;17.40;99.90
59660;DHT22;45534;52.690;6.268;2023-06-10T01:09:55;17.40;99.90
59660;DHT22;45534;52.690;6.268;2023-06-10T01:14:59;17.30;99.90
59660;DHT22;45534;52.690;6.268;2023-06-10T01:17:24;17.30;99.90
59660;DHT22;45534;52.690;6.268;2023-06-10T01:19:56;17.30;99.90
59660;DHT22;45534;52.690;6.268;2023-06-10T01:22:24;17.20;99.90
59660;DHT22;45534;52.690;6.268;2023-06-10T01:24:51;17.20;99.90
59660;DHT22;45534;52.690;6.268;2023-06-10T01:27:19;17.10;99.90
59660;DHT22;45534;52.690;6.268;2023-06-10T01:29:53;17.10;99.90
59660;DHT22;45534;52.690;6.268;2023-06-10T01:32:29;17.10;99.90
59660;DHT22;45534;52.690;6.268;2023-06-10T01:34:59;17.00;99.90
59660;DHT22;45534;52.690;6.268;2023-06-10T01:37:26;17.00;99.90
59660;DHT22;45534;52.690;6.268;2023-06-10T01:39:52;17.00;99.90
59660;DHT22;45534;52.690;6.268;2023-06-10T01:42:20;16.90;99.90
59660;DHT22;45534;52.690;6.268;2023-06-10T01:44:46;16.90;99.90
59660;DHT22;45534;52.690;6.268;2023-06-10T01:47:12;16.90;99.90
59660;DHT22;45534;52.690;6.268;2023-06-10T01:49:38;16.80;99.90
59660;DHT22;45534;52.690;6.268;2023-06-10T01:52:04;16.80;99.90
59660;DHT22;45534;52.690;6.268;2023-06-10T01:54:30;16.70;99.90
59660;DHT22;45534;52.690;6.268;2023-06-10T01:56:55;16.70;99.90
59660;DHT22;45534;52.690;6.268;2023-06-10T01:59:21;16.60;99.90
59660;DHT22;45534;52.690;6.268;2023-06-10T02:01:46;16.60;99.90
59660;DHT22;45534;52.690;6.268;2023-06-10T02:04:12;16.50;99.90
59660;DHT22;45534;52.690;6.268;2023-06-10T02:06:38;16.50;99.90
59660;DHT22;45534;52.690;6.268;2023-06-10T02:09:03;16.50;99.90
59660;DHT22;45534;52.690;6.268;2023-06-10T02:11:29;16.50;99.90
59660;DHT22;45534;52.690;6.268;2023-06-10T02:13:55;16.40;99.90
59660;DHT22;45534;52.690;6.268;2023-06-10T02:16:20;16.40;99.90
59660;DHT22;45534;52.690;6.268;2023-06-10T02:18:46;16.40;99.90
59660;DHT22;45534;52.690;6.268;2023-06-10T02:21:12;16.30;99.90
59660;DHT22;45534;52.690;6.268;2023-06-10T02:23:38;16.30;99.90
59660;DHT22;45534;52.690;6.268;2023-06-10T02:26:04;16.20;99.90
59660;DHT22;45534;52.690;6.268;2023-06-10T02:28:29;16.20;99.90
59660;DHT22;45534;52.690;6.268;2023-06-10T02:30:55;16.20;99.90
59660;DHT22;45534;52.690;6.268;2023-06-10T02:33:22;16.20;99.90
59660;DHT22;45534;52.690;6.268;2023-06-10T02:35:49;16.20;99.90
59660;DHT22;45534;52.690;6.268;2023-06-10T02:38:15;16.10;99.90
59660;DHT22;45534;52.690;6.268;2023-06-10T02:40:41;16.20;99.90
59660;DHT22;45534;52.690;6.268;2023-06-10T02:43:07;16.10;99.90
59660;DHT22;45534;52.690;6.268;2023-06-10T02:45:33;16.10;99.90
59660;DHT22;45534;52.690;6.268;2023-06-10T02:47:58;16.10;99.90
59660;DHT22;45534;52.690;6.268;2023-06-10T02:50:24;16.10;99.90
59660;DHT22;45534;52.690;6.268;2023-06-10T02:52:50;16.10;99.90
59660;DHT22;45534;52.690;6.268;2023-06-10T02:55:16;16.10;99.90
59660;DHT22;45534;52.690;6.268;2023-06-10T02:57:41;16.10;99.90
59660;DHT22;45534;52.690;6.268;2023-06-10T03:00:07;16.10;99.90
59660;DHT22;45534;52.690;6.268;2023-06-10T03:02:37;16.10;99.90
59660;DHT22;45534;52.690;6.268;2023-06-10T03:05:05;16.10;99.90
59660;DHT22;45534;52.690;6.268;2023-06-10T03:07:31;16.00;99.90
59660;DHT22;45534;52.690;6.268;2023-06-10T03:09:57;16.00;99.90
59660;DHT22;45534;52.690;6.268;2023-06-10T03:12:23;16.00;99.90
59660;DHT22;45534;52.690;6.268;2023-06-10T03:14:49;15.90;99.90
59660;DHT22;45534;52.690;6.268;2023-06-10T03:17:14;15.90;99.90
59660;DHT22;45534;52.690;6.268;2023-06-10T03:19:40;15.90;99.90
59660;DHT22;45534;52.690;6.268;2023-06-10T03:22:10;15.90;99.90
59660;DHT22;45534;52.690;6.268;2023-06-10T03:24:36;15.90;99.90
59660;DHT22;45534;52.690;6.268;2023-06-10T03:27:06;15.80;99.90
59660;DHT22;45534;52.690;6.268;2023-06-10T03:29:32;15.80;99.90
59660;DHT22;45534;52.690;6.268;2023-06-10T03:31:58;15.80;99.90
59660;DHT22;45534;52.690;6.268;2023-06-10T03:34:23;15.80;99.90
59660;DHT22;45534;52.690;6.268;2023-06-10T03:36:49;15.80;99.90
59660;DHT22;45534;52.690;6.268;2023-06-10T03:39:15;15.80;99.90
59660;DHT22;45534;52.690;6.268;2023-06-10T03:41:41;15.80;99.90
59660;DHT22;45534;52.690;6.268;2023-06-10T03:44:07;15.80;99.90
59660;DHT22;45534;52.690;6.268;2023-06-10T03:46:32;15.80;99.90
59660;DHT22;45534;52.690;6.268;2023-06-10T03:48:58;15.80;99.90
59660;DHT22;45534;52.690;6.268;2023-06-10T03:51:26;15.80;99.90
59660;DHT22;45534;52.690;6.268;2023-06-10T03:53:52;15.80;99.90
59660;DHT22;45534;52.690;6.268;2023-06-10T03:56:18;15.80;99.90
59660;DHT22;45534;52.690;6.268;2023-06-10T03:58:43;15.80;99.90
59660;DHT22;45534;52.690;6.268;2023-06-10T04:01:09;15.70;99.90
59660;DHT22;45534;52.690;6.268;2023-06-10T04:03:36;15.70;99.90
59660;DHT22;45534;52.690;6.268;2023-06-10T04:06:02;15.70;99.90
59660;DHT22;45534;52.690;6.268;2023-06-10T04:08:28;15.70;99.90
59660;DHT22;45534;52.690;6.268;2023-06-10T04:10:53;15.70;99.90
59660;DHT22;45534;52.690;6.268;2023-06-10T04:13:19;15.70;99.90
59660;DHT22;45534;52.690;6.268;2023-06-10T04:15:45;15.70;99.90
59660;DHT22;45534;52.690;6.268;2023-06-10T04:18:10;15.70;99.90
59660;DHT22;45534;52.690;6.268;2023-06-10T04:20:39;15.70;99.90
59660;DHT22;45534;52.690;6.268;2023-06-10T04:23:04;15.80;99.90
59660;DHT22;45534;52.690;6.268;2023-06-10T04:25:30;15.80;99.90
59660;DHT22;45534;52.690;6.268;2023-06-10T04:27:56;15.80;99.90
59660;DHT22;45534;52.690;6.268;2023-06-10T04:30:22;15.80;99.90
59660;DHT22;45534;52.690;6.268;2023-06-10T04:32:47;15.80;99.90
59660;DHT22;45534;52.690;6.268;2023-06-10T04:35:14;15.80;99.90
59660;DHT22;45534;52.690;6.268;2023-06-10T04:37:40;15.90;99.90
59660;DHT22;45534;52.690;6.268;2023-06-10T04:40:07;15.80;99.90
59660;DHT22;45534;52.690;6.268;2023-06-10T04:42:33;15.90;99.90
59660;DHT22;45534;52.690;6.268;2023-06-10T04:44:59;15.90;99.90
59660;DHT22;45534;52.690;6.268;2023-06-10T04:47:26;15.90;99.90
59660;DHT22;45534;52.690;6.268;2023-06-10T04:49:52;15.90;99.90
59660;DHT22;45534;52.690;6.268;2023-06-10T04:52:17;16.00;99.90
59660;DHT22;45534;52.690;6.268;2023-06-10T04:54:44;16.00;99.90
59660;DHT22;45534;52.690;6.268;2023-06-10T04:57:09;16.00;99.90
59660;DHT22;45534;52.690;6.268;2023-06-10T04:59:37;16.10;99.90
59660;DHT22;45534;52.690;6.268;2023-06-10T05:02:06;16.10;99.90
59660;DHT22;45534;52.690;6.268;2023-06-10T05:04:32;16.10;99.90
59660;DHT22;45534;52.690;6.268;2023-06-10T05:06:58;16.20;99.90
59660;DHT22;45534;52.690;6.268;2023-06-10T05:09:23;16.20;99.90
59660;DHT22;45534;52.690;6.268;2023-06-10T05:11:49;16.20;99.90
59660;DHT22;45534;52.690;6.268;2023-06-10T05:14:15;16.30;99.90
59660;DHT22;45534;52.690;6.268;2023-06-10T05:16:44;16.30;99.90
59660;DHT22;45534;52.690;6.268;2023-06-10T05:19:10;16.30;99.90
59660;DHT22;45534;52.690;6.268;2023-06-10T05:21:36;16.40;99.90
59660;DHT22;45534;52.690;6.268;2023-06-10T05:24:02;16.40;99.90
59660;DHT22;45534;52.690;6.268;2023-06-10T05:26:28;16.50;99.90
59660;DHT22;45534;52.690;6.268;2023-06-10T05:28:54;16.50;99.90
59660;DHT22;45534;52.690;6.268;2023-06-10T05:31:20;16.60;99.90
59660;DHT22;45534;52.690;6.268;2023-06-10T05:33:45;16.60;99.90
59660;DHT22;45534;52.690;6.268;2023-06-10T05:36:11;16.70;99.90
59660;DHT22;45534;52.690;6.268;2023-06-10T05:38:37;16.70;99.90
59660;DHT22;45534;52.690;6.268;2023-06-10T05:41:02;16.70;99.90
59660;DHT22;45534;52.690;6.268;2023-06-10T05:43:29;16.80;99.90
59660;DHT22;45534;52.690;6.268;2023-06-10T05:45:54;16.80;99.90
59660;DHT22;45534;52.690;6.268;2023-06-10T05:48:20;16.90;99.90
59660;DHT22;45534;52.690;6.268;2023-06-10T05:50:46;16.90;99.90
59660;DHT22;45534;52.690;6.268;2023-06-10T05:53:14;17.00;99.90
59660;DHT22;45534;52.690;6.268;2023-06-10T05:55:44;17.00;99.90
59660;DHT22;45534;52.690;6.268;2023-06-10T05:58:11;17.10;99.90
59660;DHT22;45534;52.690;6.268;2023-06-10T06:00:38;17.10;99.90
59660;DHT22;45534;52.690;6.268;2023-06-10T06:03:07;17.20;99.90
59660;DHT22;45534;52.690;6.268;2023-06-10T06:05:33;17.20;99.90
59660;DHT22;45534;52.690;6.268;2023-06-10T06:08:07;17.30;99.90
59660;DHT22;45534;52.690;6.268;2023-06-10T06:10:33;17.30;99.90
59660;DHT22;45534;52.690;6.268;2023-06-10T06:13:00;17.40;99.90
59660;DHT22;45534;52.690;6.268;2023-06-10T06:15:26;17.50;99.90
59660;DHT22;45534;52.690;6.268;2023-06-10T06:17:52;17.50;99.90
59660;DHT22;45534;52.690;6.268;2023-06-10T06:20:19;17.70;99.90
59660;DHT22;45534;52.690;6.268;2023-06-10T06:22:45;17.70;99.90
59660;DHT22;45534;52.690;6.268;2023-06-10T06:25:10;17.70;99.90
59660;DHT22;45534;52.690;6.268;2023-06-10T06:27:36;17.70;99.90
59660;DHT22;45534;52.690;6.268;2023-06-10T06:30:02;17.80;99.90
59660;DHT22;45534;52.690;6.268;2023-06-10T06:32:27;17.90;99.90
59660;DHT22;45534;52.690;6.268;2023-06-10T06:34:53;18.00;99.90
59660;DHT22;45534;52.690;6.268;2023-06-10T06:37:23;18.10;99.90
59660;DHT22;45534;52.690;6.268;2023-06-10T06:39:53;18.20;99.90
59660;DHT22;45534;52.690;6.268;2023-06-10T06:42:20;18.30;99.90
59660;DHT22;45534;52.690;6.268;2023-06-10T06:44:46;18.40;99.90
59660;DHT22;45534;52.690;6.268;2023-06-10T06:47:13;18.40;99.90
59660;DHT22;45534;52.690;6.268;2023-06-10T06:49:38;18.50;99.90
59660;DHT22;45534;52.690;6.268;2023-06-10T06:52:04;18.50;99.90
59660;DHT22;45534;52.690;6.268;2023-06-10T06:54:30;18.60;99.90
59660;DHT22;45534;52.690;6.268;2023-06-10T06:56:56;18.80;99.90
59660;DHT22;45534;52.690;6.268;2023-06-10T06:59:25;18.80;99.90
59660;DHT22;45534;52.690;6.268;2023-06-10T07:01:51;19.10;99.90
59660;DHT22;45534;52.690;6.268;2023-06-10T07:04:16;19.10;99.90
59660;DHT22;45534;52.690;6.268;2023-06-10T07:06:42;19.10;99.90
59660;DHT22;45534;52.690;6.268;2023-06-10T07:09:08;19.30;99.90
59660;DHT22;45534;52.690;6.268;2023-06-10T07:11:34;19.30;99.90
59660;DHT22;45534;52.690;6.268;2023-06-10T07:14:00;19.50;99.90
59660;DHT22;45534;52.690;6.268;2023-06-10T07:16:26;19.60;99.90
59660;DHT22;45534;52.690;6.268;2023-06-10T07:18:52;19.70;99.90
59660;DHT22;45534;52.690;6.268;2023-06-10T07:21:18;19.80;99.90
59660;DHT22;45534;52.690;6.268;2023-06-10T07:23:44;19.80;99.90
59660;DHT22;45534;52.690;6.268;2023-06-10T07:26:10;19.90;99.90
59660;DHT22;45534;52.690;6.268;2023-06-10T07:28:41;20.00;99.90
59660;DHT22;45534;52.690;6.268;2023-06-10T07:31:07;20.20;99.90
59660;DHT22;45534;52.690;6.268;2023-06-10T07:33:33;20.50;99.90
59660;DHT22;45534;52.690;6.268;2023-06-10T07:35:59;20.60;99.90
59660;DHT22;45534;52.690;6.268;2023-06-10T07:38:25;20.60;99.90
59660;DHT22;45534;52.690;6.268;2023-06-10T07:40:51;20.60;99.90
59660;DHT22;45534;52.690;6.268;2023-06-10T07:43:17;20.60;99.90
59660;DHT22;45534;52.690;6.268;2023-06-10T07:45:45;20.70;99.90
59660;DHT22;45534;52.690;6.268;2023-06-10T07:48:11;20.80;99.90
59660;DHT22;45534;52.690;6.268;2023-06-10T07:50:37;21.10;99.90
59660;DHT22;45534;52.690;6.268;2023-06-10T07:53:03;21.30;99.90
59660;DHT22;45534;52.690;6.268;2023-06-10T07:55:29;21.50;99.90
59660;DHT22;45534;52.690;6.268;2023-06-10T07:57:55;21.50;99.90
59660;DHT22;45534;52.690;6.268;2023-06-10T08:00:21;21.60;99.90
59660;DHT22;45534;52.690;6.268;2023-06-10T08:02:46;21.70;99.90
59660;DHT22;45534;52.690;6.268;2023-06-10T08:05:12;21.80;99.90
59660;DHT22;45534;52.690;6.268;2023-06-10T08:07:40;22.00;99.90
59660;DHT22;45534;52.690;6.268;2023-06-10T08:10:06;22.00;99.90
59660;DHT22;45534;52.690;6.268;2023-06-10T08:12:33;22.20;99.90
59660;DHT22;45534;52.690;6.268;2023-06-10T08:14:59;22.40;99.90
59660;DHT22;45534;52.690;6.268;2023-06-10T08:17:25;22.60;99.80
59660;DHT22;45534;52.690;6.268;2023-06-10T08:19:51;22.80;99.10
59660;DHT22;45534;52.690;6.268;2023-06-10T08:22:16;22.80;98.60
59660;DHT22;45534;52.690;6.268;2023-06-10T08:24:42;23.00;98.30
59660;DHT22;45534;52.690;6.268;2023-06-10T08:27:08;23.10;98.20
59660;DHT22;45534;52.690;6.268;2023-06-10T08:29:33;23.40;97.40
59660;DHT22;45534;52.690;6.268;2023-06-10T08:31:59;23.40;96.60
59660;DHT22;45534;52.690;6.268;2023-06-10T08:34:25;23.50;98.00
59660;DHT22;45534;52.690;6.268;2023-06-10T08:36:51;23.50;96.60
59660;DHT22;45534;52.690;6.268;2023-06-10T08:39:22;23.70;97.90
59660;DHT22;45534;52.690;6.268;2023-06-10T08:44:30;23.90;95.50
59660;DHT22;45534;52.690;6.268;2023-06-10T08:46:59;24.00;94.00
59660;DHT22;45534;52.690;6.268;2023-06-10T08:49:26;24.20;95.40
59660;DHT22;45534;52.690;6.268;2023-06-10T08:51:59;24.30;94.90
59660;DHT22;45534;52.690;6.268;2023-06-10T08:54:31;24.40;91.00
59660;DHT22;45534;52.690;6.268;2023-06-10T08:56:59;24.50;88.70
59660;DHT22;45534;52.690;6.268;2023-06-10T08:59:25;24.70;91.50
59660;DHT22;45534;52.690;6.268;2023-06-10T09:01:52;24.80;88.80
59660;DHT22;45534;52.690;6.268;2023-06-10T09:04:19;25.00;87.10
59660;DHT22;45534;52.690;6.268;2023-06-10T09:06:47;25.10;87.70
59660;DHT22;45534;52.690;6.268;2023-06-10T09:09:14;25.10;86.50
59660;DHT22;45534;52.690;6.268;2023-06-10T09:11:43;24.80;87.40
59660;DHT22;45534;52.690;6.268;2023-06-10T09:14:09;24.80;89.10
59660;DHT22;45534;52.690;6.268;2023-06-10T09:16:35;24.80;88.20
59660;DHT22;45534;52.690;6.268;2023-06-10T09:19:01;24.80;90.60
59660;DHT22;45534;52.690;6.268;2023-06-10T09:21:33;24.90;87.80
59660;DHT22;45534;52.690;6.268;2023-06-10T09:23:59;25.20;80.80
59660;DHT22;45534;52.690;6.268;2023-06-10T09:26:29;25.40;76.50
59660;DHT22;45534;52.690;6.268;2023-06-10T09:29:07;25.50;78.80
59660;DHT22;45534;52.690;6.268;2023-06-10T09:31:38;25.50;81.40
59660;DHT22;45534;52.690;6.268;2023-06-10T09:34:15;25.20;84.30
59660;DHT22;45534;52.690;6.268;2023-06-10T09:36:42;25.10;83.60
59660;DHT22;45534;52.690;6.268;2023-06-10T09:39:18;25.00;87.90
59660;DHT22;45534;52.690;6.268;2023-06-10T09:41:45;25.00;89.50
59660;DHT22;45534;52.690;6.268;2023-06-10T09:44:16;25.10;86.70
59660;DHT22;45534;52.690;6.268;2023-06-10T09:46:42;25.40;85.90
59660;DHT22;45534;52.690;6.268;2023-06-10T09:49:10;25.50;83.90
59660;DHT22;45534;52.690;6.268;2023-06-10T09:51:36;25.80;85.90
59660;DHT22;45534;52.690;6.268;2023-06-10T09:54:04;25.90;79.60
59660;DHT22;45534;52.690;6.268;2023-06-10T09:56:36;25.70;77.60
59660;DHT22;45534;52.690;6.268;2023-06-10T09:59:03;25.50;81.50
59660;DHT22;45534;52.690;6.268;2023-06-10T10:01:32;25.50;84.90
59660;DHT22;45534;52.690;6.268;2023-06-10T10:03:59;25.70;82.80
59660;DHT22;45534;52.690;6.268;2023-06-10T10:06:25;25.70;77.90
59660;DHT22;45534;52.690;6.268;2023-06-10T10:08:51;25.70;80.10
59660;DHT22;45534;52.690;6.268;2023-06-10T10:11:19;25.80;79.70
59660;DHT22;45534;52.690;6.268;2023-06-10T10:13:49;26.00;81.50
59660;DHT22;45534;52.690;6.268;2023-06-10T10:16:17;26.00;78.30
59660;DHT22;45534;52.690;6.268;2023-06-10T10:18:52;26.00;74.40
59660;DHT22;45534;52.690;6.268;2023-06-10T10:21:24;26.10;75.10
59660;DHT22;45534;52.690;6.268;2023-06-10T10:26:21;26.40;76.30
59660;DHT22;45534;52.690;6.268;2023-06-10T10:29:10;26.70;80.10
59660;DHT22;45534;52.690;6.268;2023-06-10T10:31:37;26.70;74.10
59660;DHT22;45534;52.690;6.268;2023-06-10T10:34:06;26.60;74.10
59660;DHT22;45534;52.690;6.268;2023-06-10T10:36:32;26.60;74.60
59660;DHT22;45534;52.690;6.268;2023-06-10T10:38:58;26.40;70.00
59660;DHT22;45534;52.690;6.268;2023-06-10T10:41:27;26.40;73.60
59660;DHT22;45534;52.690;6.268;2023-06-10T10:43:54;26.50;72.60
59660;DHT22;45534;52.690;6.268;2023-06-10T10:46:20;26.40;70.90
59660;DHT22;45534;52.690;6.268;2023-06-10T10:48:52;26.30;70.10
59660;DHT22;45534;52.690;6.268;2023-06-10T10:51:18;26.40;71.50
59660;DHT22;45534;52.690;6.268;2023-06-10T10:53:44;26.60;72.80
59660;DHT22;45534;52.690;6.268;2023-06-10T10:56:30;26.80;69.10
59660;DHT22;45534;52.690;6.268;2023-06-10T10:59:05;26.80;67.60
59660;DHT22;45534;52.690;6.268;2023-06-10T11:01:43;27.00;66.30
59660;DHT22;45534;52.690;6.268;2023-06-10T11:04:12;27.20;64.20
59660;DHT22;45534;52.690;6.268;2023-06-10T11:06:38;27.40;65.30
59660;DHT22;45534;52.690;6.268;2023-06-10T11:09:26;27.50;64.20
59660;DHT22;45534;52.690;6.268;2023-06-10T11:11:52;27.30;64.00
59660;DHT22;45534;52.690;6.268;2023-06-10T11:14:28;27.30;66.10
59660;DHT22;45534;52.690;6.268;2023-06-10T11:16:57;27.60;66.20
59660;DHT22;45534;52.690;6.268;2023-06-10T11:19:36;27.90;61.50
59660;DHT22;45534;52.690;6.268;2023-06-10T11:22:06;28.00;60.10
59660;DHT22;45534;52.690;6.268;2023-06-10T11:24:33;28.00;60.80
59660;DHT22;45534;52.690;6.268;2023-06-10T11:27:21;27.80;59.50
59660;DHT22;45534;52.690;6.268;2023-06-10T11:29:58;27.90;58.30
59660;DHT22;45534;52.690;6.268;2023-06-10T11:32:43;27.80;59.40
59660;DHT22;45534;52.690;6.268;2023-06-10T11:35:09;27.80;60.00
59660;DHT22;45534;52.690;6.268;2023-06-10T11:37:35;27.70;58.50
59660;DHT22;45534;52.690;6.268;2023-06-10T11:40:00;27.70;57.50
59660;DHT22;45534;52.690;6.268;2023-06-10T11:42:27;27.80;57.10
59660;DHT22;45534;52.690;6.268;2023-06-10T11:44:54;27.80;56.10
59660;DHT22;45534;52.690;6.268;2023-06-10T11:47:20;27.80;56.70
59660;DHT22;45534;52.690;6.268;2023-06-10T11:49:56;28.10;58.50
59660;DHT22;45534;52.690;6.268;2023-06-10T11:52:30;28.50;56.40
59660;DHT22;45534;52.690;6.268;2023-06-10T11:54:57;28.60;54.90
59660;DHT22;45534;52.690;6.268;2023-06-10T11:57:23;28.80;55.10
59660;DHT22;45534;52.690;6.268;2023-06-10T11:59:49;29.10;53.10
59660;DHT22;45534;52.690;6.268;2023-06-10T12:02:16;29.40;52.00
59660;DHT22;45534;52.690;6.268;2023-06-10T12:04:41;29.50;51.40
59660;DHT22;45534;52.690;6.268;2023-06-10T12:07:07;29.70;52.50
59660;DHT22;45534;52.690;6.268;2023-06-10T12:09:33;29.80;49.70
59660;DHT22;45534;52.690;6.268;2023-06-10T12:12:05;29.90;49.50
59660;DHT22;45534;52.690;6.268;2023-06-10T12:15:11;29.70;48.50
59660;DHT22;45534;52.690;6.268;2023-06-10T12:17:49;29.50;47.70
59660;DHT22;45534;52.690;6.268;2023-06-10T12:20:28;29.30;47.30
59660;DHT22;45534;52.690;6.268;2023-06-10T12:22:54;29.50;48.60
59660;DHT22;45534;52.690;6.268;2023-06-10T12:25:25;29.90;48.10
59660;DHT22;45534;52.690;6.268;2023-06-10T12:27:53;30.30;45.90
59660;DHT22;45534;52.690;6.268;2023-06-10T12:30:20;30.50;44.90
59660;DHT22;45534;52.690;6.268;2023-06-10T12:32:46;30.50;44.70
59660;DHT22;45534;52.690;6.268;2023-06-10T12:35:16;30.50;44.70
59660;DHT22;45534;52.690;6.268;2023-06-10T12:37:54;30.40;43.90
59660;DHT22;45534;52.690;6.268;2023-06-10T12:40:26;30.10;42.20
59660;DHT22;45534;52.690;6.268;2023-06-10T12:42:53;29.80;42.30
59660;DHT22;45534;52.690;6.268;2023-06-10T12:45:35;29.50;42.80
59660;DHT22;45534;52.690;6.268;2023-06-10T12:50:39;29.60;44.10
59660;DHT22;45534;52.690;6.268;2023-06-10T12:53:09;29.60;42.80
59660;DHT22;45534;52.690;6.268;2023-06-10T12:55:35;29.70;45.00
59660;DHT22;45534;52.690;6.268;2023-06-10T12:58:01;30.00;44.10
59660;DHT22;45534;52.690;6.268;2023-06-10T13:00:27;30.30;42.40
59660;DHT22;45534;52.690;6.268;2023-06-10T13:02:59;30.20;42.40
59660;DHT22;45534;52.690;6.268;2023-06-10T13:05:26;30.10;40.90
59660;DHT22;45534;52.690;6.268;2023-06-10T13:07:55;30.20;44.50
59660;DHT22;45534;52.690;6.268;2023-06-10T13:10:21;30.60;43.50
59660;DHT22;45534;52.690;6.268;2023-06-10T13:12:47;31.30;42.70
59660;DHT22;45534;52.690;6.268;2023-06-10T13:15:13;31.70;40.70
59660;DHT22;45534;52.690;6.268;2023-06-10T13:17:40;32.10;40.90
59660;DHT22;45534;52.690;6.268;2023-06-10T13:20:07;32.30;39.70
59660;DHT22;45534;52.690;6.268;2023-06-10T13:22:33;32.50;39.80
59660;DHT22;45534;52.690;6.268;2023-06-10T13:25:01;32.90;39.10
59660;DHT22;45534;52.690;6.268;2023-06-10T13:27:28;32.90;38.40
59660;DHT22;45534;52.690;6.268;2023-06-10T13:29:54;33.10;39.00
59660;DHT22;45534;52.690;6.268;2023-06-10T13:32:19;33.30;38.50
59660;DHT22;45534;52.690;6.268;2023-06-10T13:34:45;33.50;38.20
59660;DHT22;45534;52.690;6.268;2023-06-10T13:37:11;33.70;37.10
59660;DHT22;45534;52.690;6.268;2023-06-10T13:39:38;33.30;36.30
59660;DHT22;45534;52.690;6.268;2023-06-10T13:42:05;32.80;36.60
59660;DHT22;45534;52.690;6.268;2023-06-10T13:44:31;32.60;36.90
59660;DHT22;45534;52.690;6.268;2023-06-10T13:46:59;32.90;35.70
59660;DHT22;45534;52.690;6.268;2023-06-10T13:49:25;33.20;35.90
59660;DHT22;45534;52.690;6.268;2023-06-10T13:51:50;33.50;35.70
59660;DHT22;45534;52.690;6.268;2023-06-10T13:54:16;33.20;34.70
59660;DHT22;45534;52.690;6.268;2023-06-10T13:56:42;32.60;34.90
59660;DHT22;45534;52.690;6.268;2023-06-10T13:59:08;32.30;36.10
59660;DHT22;45534;52.690;6.268;2023-06-10T14:01:34;32.30;34.80
59660;DHT22;45534;52.690;6.268;2023-06-10T14:04:00;32.20;35.70
59660;DHT22;45534;52.690;6.268;2023-06-10T14:06:26;32.20;34.50
59660;DHT22;45534;52.690;6.268;2023-06-10T14:08:52;32.00;33.60
59660;DHT22;45534;52.690;6.268;2023-06-10T14:11:20;31.70;33.00
59660;DHT22;45534;52.690;6.268;2023-06-10T14:13:46;31.80;33.40
59660;DHT22;45534;52.690;6.268;2023-06-10T14:16:12;32.20;34.20
59660;DHT22;45534;52.690;6.268;2023-06-10T14:18:38;32.80;33.40
59660;DHT22;45534;52.690;6.268;2023-06-10T14:21:04;33.30;34.50
59660;DHT22;45534;52.690;6.268;2023-06-10T14:23:30;33.80;35.30
59660;DHT22;45534;52.690;6.268;2023-06-10T14:25:55;34.30;34.20
59660;DHT22;45534;52.690;6.268;2023-06-10T14:28:21;34.70;34.30
59660;DHT22;45534;52.690;6.268;2023-06-10T14:30:47;34.80;34.20
59660;DHT22;45534;52.690;6.268;2023-06-10T14:33:12;35.00;34.10
59660;DHT22;45534;52.690;6.268;2023-06-10T14:35:38;35.30;33.50
59660;DHT22;45534;52.690;6.268;2023-06-10T14:38:04;35.40;33.00
59660;DHT22;45534;52.690;6.268;2023-06-10T14:40:29;35.40;33.60
59660;DHT22;45534;52.690;6.268;2023-06-10T14:42:57;35.40;32.60
59660;DHT22;45534;52.690;6.268;2023-06-10T14:45:23;35.40;32.70
59660;DHT22;45534;52.690;6.268;2023-06-10T14:47:49;35.30;32.00
59660;DHT22;45534;52.690;6.268;2023-06-10T14:50:15;35.00;31.70
59660;DHT22;45534;52.690;6.268;2023-06-10T14:52:41;34.70;33.00
59660;DHT22;45534;52.690;6.268;2023-06-10T14:55:06;34.90;32.50
59660;DHT22;45534;52.690;6.268;2023-06-10T14:57:32;35.00;31.60
59660;DHT22;45534;52.690;6.268;2023-06-10T14:59:58;35.00;32.50
59660;DHT22;45534;52.690;6.268;2023-06-10T15:02:23;35.20;32.40
59660;DHT22;45534;52.690;6.268;2023-06-10T15:04:49;35.10;31.50
59660;DHT22;45534;52.690;6.268;2023-06-10T15:07:15;34.60;31.80
59660;DHT22;45534;52.690;6.268;2023-06-10T15:09:41;34.30;31.30
59660;DHT22;45534;52.690;6.268;2023-06-10T15:12:08;34.00;31.30
59660;DHT22;45534;52.690;6.268;2023-06-10T15:14:34;33.80;30.60
59660;DHT22;45534;52.690;6.268;2023-06-10T15:17:00;33.50;31.00
59660;DHT22;45534;52.690;6.268;2023-06-10T15:19:26;33.10;31.40
59660;DHT22;45534;52.690;6.268;2023-06-10T15:21:52;33.10;31.20
59660;DHT22;45534;52.690;6.268;2023-06-10T15:24:18;33.10;30.90
59660;DHT22;45534;52.690;6.268;2023-06-10T15:26:44;33.30;32.00
59660;DHT22;45534;52.690;6.268;2023-06-10T15:29:10;33.70;31.60
59660;DHT22;45534;52.690;6.268;2023-06-10T15:31:36;34.00;31.30
59660;DHT22;45534;52.690;6.268;2023-06-10T15:34:02;34.20;31.60
59660;DHT22;45534;52.690;6.268;2023-06-10T15:36:28;33.90;32.00
59660;DHT22;45534;52.690;6.268;2023-06-10T15:38:54;33.70;31.80
59660;DHT22;45534;52.690;6.268;2023-06-10T15:41:22;33.20;31.80